createdAt,value
2023-03-24T00:01:26.800Z,29.80
2023-03-24T00:03:55.112Z,32.70
2023-03-24T00:06:23.655Z,30.50
2023-03-24T00:08:53.195Z,27.30
2023-03-24T00:11:21.985Z,29.20
2023-03-24T00:13:50.839Z,28.90
2023-03-24T00:16:20.044Z,20.70
2023-03-24T00:18:53.193Z,16.40
2023-03-24T00:21:25.220Z,15.70
2023-03-24T00:23:55.919Z,14.10
2023-03-24T00:26:25.449Z,13.30
2023-03-24T00:28:54.881Z,12.70
2023-03-24T00:31:24.594Z,12.50
2023-03-24T00:33:54.187Z,11.70
2023-03-24T00:36:25.918Z,13.30
2023-03-24T00:38:57.836Z,10.90
2023-03-24T00:41:27.539Z,11.20
2023-03-24T00:43:59.170Z,13.70
2023-03-24T00:46:28.068Z,14.70
2023-03-24T00:49:06.586Z,13.70
2023-03-24T00:51:39.089Z,14.40
2023-03-24T00:54:10.468Z,16.90
2023-03-24T00:56:40.939Z,18.10
2023-03-24T00:59:10.694Z,24.30
2023-03-24T01:01:41.289Z,24.10
2023-03-24T01:04:10.548Z,18.60
2023-03-24T01:06:41.151Z,22.00
2023-03-24T01:09:10.613Z,24.30
2023-03-24T01:11:41.472Z,21.30
2023-03-24T01:14:11.825Z,18.70
2023-03-24T01:16:42.175Z,29.90
2023-03-24T01:19:10.670Z,25.40
2023-03-24T01:21:39.358Z,24.80
2023-03-24T01:24:08.458Z,29.50
2023-03-24T01:26:36.838Z,25.80
2023-03-24T01:29:06.135Z,26.20
2023-03-24T01:31:35.114Z,26.80
2023-03-24T01:34:04.053Z,21.80
2023-03-24T01:36:32.362Z,19.80
2023-03-24T01:39:01.426Z,25.20
2023-03-24T01:41:37.545Z,26.70
2023-03-24T01:44:29.529Z,26.70
2023-03-24T01:46:58.750Z,26.10
2023-03-24T01:49:42.123Z,24.40
2023-03-24T01:52:19.217Z,23.20
2023-03-24T01:55:02.054Z,24.00
2023-03-24T01:57:36.529Z,25.10
2023-03-24T02:00:12.616Z,18.90
2023-03-24T02:03:10.256Z,25.30
2023-03-24T02:05:47.001Z,20.10
2023-03-24T02:08:33.061Z,19.50
2023-03-24T02:11:02.640Z,22.00
2023-03-24T02:13:38.265Z,21.10
2023-03-24T02:16:55.013Z,18.70
2023-03-24T02:20:05.543Z,18.00
2023-03-24T02:22:57.574Z,16.80
2023-03-24T02:26:11.483Z,15.50
2023-03-24T02:29:16.922Z,14.30
2023-03-24T02:32:06.930Z,11.00
2023-03-24T02:34:55.176Z,13.10
2023-03-24T02:37:55.135Z,14.50
2023-03-24T02:40:30.243Z,10.90
2023-03-24T02:43:26.545Z,13.10
2023-03-24T02:46:01.935Z,12.00
2023-03-24T02:48:54.275Z,13.90
2023-03-24T02:52:15.049Z,19.60
2023-03-24T02:55:17.815Z,18.30
2023-03-24T02:57:58.052Z,15.60
2023-03-24T03:01:03.461Z,14.90
2023-03-24T03:03:53.032Z,16.00
2023-03-24T03:06:39.601Z,16.60
2023-03-24T03:09:13.410Z,19.00
2023-03-24T03:11:47.947Z,21.50
2023-03-24T03:14:28.782Z,19.00
2023-03-24T03:17:53.329Z,15.10
2023-03-24T03:20:25.661Z,17.80
2023-03-24T03:23:04.227Z,14.30
2023-03-24T03:25:46.355Z,16.20
2023-03-24T03:28:20.678Z,15.30
2023-03-24T03:30:54.493Z,18.00
2023-03-24T03:33:31.173Z,17.60
2023-03-24T03:36:32.529Z,16.20
2023-03-24T03:39:15.968Z,15.20
2023-03-24T03:41:45.535Z,14.70
2023-03-24T03:44:13.897Z,15.90
2023-03-24T03:46:43.075Z,17.40
2023-03-24T03:49:12.590Z,13.30
2023-03-24T03:51:40.862Z,16.00
2023-03-24T03:54:13.630Z,18.80
2023-03-24T03:56:42.966Z,17.00
2023-03-24T03:59:38.686Z,19.40
2023-03-24T04:02:42.280Z,21.30
2023-03-24T04:05:36.408Z,19.90
2023-03-24T04:08:52.806Z,18.90
2023-03-24T04:11:48.313Z,18.10
2023-03-24T04:14:41.030Z,19.80
2023-03-24T04:18:16.980Z,17.30
2023-03-24T04:21:06.276Z,17.20
2023-03-24T04:23:54.827Z,18.10
2023-03-24T04:26:34.449Z,22.50
2023-03-24T04:29:33.398Z,27.60
2023-03-24T04:32:52.287Z,25.00
2023-03-24T04:35:33.920Z,30.30
2023-03-24T04:38:32.725Z,31.90
2023-03-24T04:41:29.411Z,36.80
2023-03-24T04:44:12.656Z,48.20
2023-03-24T04:46:58.848Z,62.30
2023-03-24T04:49:27.417Z,75.10
2023-03-24T04:51:55.866Z,85.40
2023-03-24T04:54:28.135Z,85.00
2023-03-24T04:57:01.896Z,84.50
2023-03-24T04:59:43.070Z,75.40
2023-03-24T05:02:11.647Z,61.10
2023-03-24T05:05:07.493Z,44.40
2023-03-24T05:07:38.636Z,37.90
2023-03-24T05:10:10.830Z,38.00
2023-03-24T05:12:45.796Z,35.60
2023-03-24T05:15:14.044Z,30.30
2023-03-24T05:17:42.430Z,24.30
2023-03-24T05:20:11.821Z,33.90
2023-03-24T05:22:42.213Z,24.20
2023-03-24T05:25:10.400Z,24.40
2023-03-24T05:27:38.714Z,19.70
2023-03-24T05:30:17.526Z,21.50
2023-03-24T05:32:47.245Z,20.20
2023-03-24T05:35:16.097Z,20.20
2023-03-24T05:37:44.594Z,24.90
2023-03-24T05:40:13.108Z,26.10
2023-03-24T05:42:52.379Z,24.50
2023-03-24T05:45:21.025Z,18.90
2023-03-24T05:47:49.429Z,26.70
2023-03-24T05:50:19.219Z,22.70
2023-03-24T05:52:47.481Z,22.60
2023-03-24T05:55:30.515Z,28.80
2023-03-24T06:00:38.789Z,19.80
2023-03-24T06:03:10.749Z,14.70
2023-03-24T06:05:46.082Z,13.10
2023-03-24T06:08:14.731Z,10.60
2023-03-24T06:10:43.370Z,12.50
2023-03-24T06:13:11.499Z,21.30
2023-03-24T06:15:43.115Z,14.00
2023-03-24T06:18:32.243Z,12.50
2023-03-24T06:21:03.852Z,13.00
2023-03-24T06:23:34.012Z,14.40
2023-03-24T06:26:11.635Z,12.40
2023-03-24T06:29:02.078Z,15.80
2023-03-24T06:31:34.584Z,16.20
2023-03-24T06:34:04.396Z,14.40
2023-03-24T06:36:34.750Z,9.40
2023-03-24T06:39:06.065Z,16.40
2023-03-24T06:41:34.837Z,16.20
2023-03-24T06:44:03.731Z,13.70
2023-03-24T06:46:31.906Z,12.70
2023-03-24T06:49:00.204Z,12.00
2023-03-24T06:51:28.397Z,10.00
2023-03-24T06:53:56.549Z,12.80
2023-03-24T06:56:24.837Z,13.00
2023-03-24T06:58:57.694Z,10.60
2023-03-24T07:01:32.416Z,10.00
2023-03-24T07:04:25.978Z,11.50
2023-03-24T07:07:25.900Z,11.60
2023-03-24T07:10:05.757Z,12.70
2023-03-24T07:12:35.619Z,12.10
2023-03-24T07:15:04.736Z,11.90
2023-03-24T07:17:33.511Z,12.40
2023-03-24T07:20:20.748Z,15.00
2023-03-24T07:22:58.560Z,17.60
2023-03-24T07:25:26.970Z,15.40
2023-03-24T07:28:00.520Z,15.10
2023-03-24T07:30:50.849Z,12.00
2023-03-24T07:33:20.253Z,11.50
2023-03-24T07:35:48.810Z,11.20
2023-03-24T07:38:17.243Z,10.90
2023-03-24T07:40:46.286Z,18.70
2023-03-24T07:43:14.753Z,15.90
2023-03-24T07:45:52.909Z,17.70
2023-03-24T07:48:21.234Z,16.70
2023-03-24T07:50:49.434Z,10.20
2023-03-24T07:54:16.900Z,15.80
2023-03-24T07:56:48.392Z,19.70
2023-03-24T07:59:17.396Z,22.70
2023-03-24T08:02:03.845Z,20.70
2023-03-24T08:04:43.001Z,23.40
2023-03-24T08:07:30.987Z,16.50
2023-03-24T08:10:01.427Z,16.00
2023-03-24T08:12:29.634Z,17.20
2023-03-24T08:14:57.906Z,14.80
2023-03-24T08:17:26.080Z,19.90
2023-03-24T08:19:59.501Z,15.60
2023-03-24T08:22:29.134Z,18.90
2023-03-24T08:24:57.250Z,13.20
2023-03-24T08:27:25.388Z,14.40
2023-03-24T08:29:53.534Z,16.20
2023-03-24T08:32:21.656Z,12.60
2023-03-24T08:34:49.814Z,13.10
2023-03-24T08:37:17.932Z,14.10
2023-03-24T08:39:46.894Z,18.40
2023-03-24T08:42:15.140Z,13.30
2023-03-24T08:44:43.293Z,16.40
2023-03-24T08:47:11.450Z,13.90
2023-03-24T08:49:39.634Z,11.30
2023-03-24T08:52:08.424Z,18.00
2023-03-24T08:54:36.728Z,18.80
2023-03-24T08:57:04.894Z,19.50
2023-03-24T08:59:32.986Z,21.80
2023-03-24T09:02:01.812Z,19.60
2023-03-24T09:04:30.029Z,20.50
2023-03-24T09:07:02.400Z,22.80
2023-03-24T09:09:31.049Z,18.60
2023-03-24T09:11:59.287Z,24.20
2023-03-24T09:14:27.715Z,17.50
2023-03-24T09:16:56.217Z,15.70
2023-03-24T09:19:24.407Z,11.60
2023-03-24T09:21:53.952Z,13.80
2023-03-24T09:24:22.229Z,11.10
2023-03-24T09:26:50.606Z,11.60
2023-03-24T09:29:18.784Z,39.20
2023-03-24T09:31:47.146Z,19.40
2023-03-24T09:34:15.652Z,14.90
2023-03-24T09:36:43.807Z,19.20
2023-03-24T09:39:11.915Z,12.70
2023-03-24T09:41:41.414Z,13.00
2023-03-24T09:44:28.167Z,12.50
2023-03-24T09:47:21.662Z,12.30
2023-03-24T09:52:40.534Z,12.10
2023-03-24T09:55:16.962Z,7.80
2023-03-24T09:57:48.732Z,12.60
2023-03-24T10:00:29.493Z,8.10
2023-03-24T10:03:36.268Z,7.20
2023-03-24T10:06:42.915Z,8.40
2023-03-24T10:09:31.013Z,37.40
2023-03-24T10:12:17.246Z,35.20
2023-03-24T10:15:03.415Z,67.70
2023-03-24T10:17:54.606Z,6.90
2023-03-24T10:20:43.674Z,4.50
2023-03-24T10:23:26.895Z,6.30
2023-03-24T10:28:48.733Z,4.80
2023-03-24T10:31:26.563Z,5.20
2023-03-24T10:33:54.884Z,5.60
2023-03-24T10:36:25.228Z,6.80
2023-03-24T10:38:53.927Z,6.20
2023-03-24T10:41:27.836Z,6.10
2023-03-24T10:43:58.060Z,6.60
2023-03-24T10:46:30.302Z,6.60
2023-03-24T10:49:15.909Z,4.70
2023-03-24T10:51:54.091Z,6.70
2023-03-24T10:54:32.719Z,7.70
2023-03-24T10:57:03.891Z,8.30
2023-03-24T10:59:56.529Z,5.00
2023-03-24T11:02:33.217Z,9.40
2023-03-24T11:05:15.727Z,6.30
2023-03-24T11:07:47.969Z,7.60
2023-03-24T11:10:23.848Z,8.80
2023-03-24T11:12:54.875Z,5.20
2023-03-24T11:15:29.351Z,5.90
2023-03-24T11:18:16.641Z,6.00
2023-03-24T11:20:52.544Z,7.70
2023-03-24T11:23:44.629Z,4.70
2023-03-24T11:26:22.183Z,5.00
2023-03-24T11:28:57.219Z,5.90
2023-03-24T11:31:31.646Z,4.00
2023-03-24T11:34:34.262Z,7.00
2023-03-24T11:37:13.107Z,4.80
2023-03-24T11:39:41.519Z,3.80
2023-03-24T11:42:12.741Z,4.40
2023-03-24T11:44:55.390Z,4.50
2023-03-24T11:47:32.593Z,6.10
2023-03-24T11:50:09.914Z,5.10
2023-03-24T11:52:46.530Z,4.70
2023-03-24T11:55:25.889Z,4.10
2023-03-24T11:58:02.996Z,6.40
2023-03-24T12:00:41.263Z,3.90
2023-03-24T12:03:42.576Z,4.40
2023-03-24T12:06:41.201Z,4.40
2023-03-24T12:09:38.921Z,4.60
2023-03-24T12:12:16.221Z,5.40
2023-03-24T12:15:29.244Z,6.00
2023-03-24T12:18:21.405Z,5.10
2023-03-24T12:21:07.842Z,9.80
2023-03-24T12:23:58.646Z,11.20
2023-03-24T12:26:34.810Z,4.90
2023-03-24T12:29:18.403Z,7.40
2023-03-24T12:31:55.504Z,17.00
2023-03-24T12:34:56.820Z,7.50
2023-03-24T12:37:54.433Z,7.70
2023-03-24T12:41:01.129Z,5.60
2023-03-24T12:44:01.311Z,9.30
2023-03-24T12:46:56.249Z,5.60
2023-03-24T12:50:03.428Z,4.30
2023-03-24T12:53:09.653Z,4.60
2023-03-24T12:55:53.910Z,12.40
2023-03-24T12:58:43.226Z,5.40
2023-03-24T13:01:34.083Z,4.50
2023-03-24T13:04:21.867Z,5.00
2023-03-24T13:07:11.546Z,6.00
2023-03-24T13:09:55.707Z,10.40
2023-03-24T13:13:11.096Z,5.10
2023-03-24T13:15:52.312Z,7.10
2023-03-24T13:18:32.565Z,4.50
2023-03-24T13:21:17.245Z,4.20
2023-03-24T13:24:08.008Z,5.70
2023-03-24T13:27:28.562Z,4.30
2023-03-24T13:30:39.550Z,4.80
2023-03-24T13:33:19.968Z,4.10
2023-03-24T13:35:57.629Z,4.50
2023-03-24T13:38:43.608Z,4.10
2023-03-24T13:41:19.777Z,5.30
2023-03-24T13:43:52.271Z,3.70
2023-03-24T13:46:20.539Z,3.90
2023-03-24T13:48:55.398Z,5.10
2023-03-24T13:51:34.198Z,6.00
2023-03-24T13:54:18.897Z,5.70
2023-03-24T13:57:04.236Z,4.90
2023-03-24T14:00:01.977Z,7.10
2023-03-24T14:03:05.486Z,5.10
2023-03-24T14:06:09.041Z,5.70
2023-03-24T14:08:52.818Z,10.20
2023-03-24T14:11:38.222Z,8.20
2023-03-24T14:14:15.604Z,14.90
2023-03-24T14:17:08.587Z,22.10
2023-03-24T14:19:58.469Z,7.90
2023-03-24T14:22:33.484Z,5.40
2023-03-24T14:25:16.699Z,10.70
2023-03-24T14:27:47.712Z,7.60
2023-03-24T14:30:30.537Z,5.90
2023-03-24T14:33:01.737Z,4.10
2023-03-24T14:35:33.020Z,5.50
2023-03-24T14:38:16.159Z,5.10
2023-03-24T14:43:55.256Z,7.40
2023-03-24T14:46:43.765Z,6.40
2023-03-24T14:49:15.777Z,5.00
2023-03-24T14:52:00.709Z,4.50
2023-03-24T14:54:58.611Z,6.50
2023-03-24T14:57:35.556Z,3.40
2023-03-24T15:00:12.074Z,4.90
2023-03-24T15:02:51.298Z,2.90
2023-03-24T15:05:32.013Z,5.70
2023-03-24T15:08:11.632Z,6.00
2023-03-24T15:10:43.663Z,5.00
2023-03-24T15:13:36.971Z,5.40
2023-03-24T15:19:01.974Z,5.40
2023-03-24T15:21:39.528Z,4.40
2023-03-24T15:24:23.075Z,5.20
2023-03-24T15:27:13.675Z,3.80
2023-03-24T15:29:44.381Z,3.80
2023-03-24T15:32:24.255Z,7.30
2023-03-24T15:34:57.070Z,5.80
2023-03-24T15:40:13.150Z,3.80
2023-03-24T15:42:46.655Z,9.30
2023-03-24T15:45:33.623Z,7.30
2023-03-24T15:48:20.555Z,9.60
2023-03-24T15:50:59.133Z,7.40
2023-03-24T15:53:44.039Z,7.10
2023-03-24T15:56:12.347Z,9.10
2023-03-24T15:58:49.807Z,6.90
2023-03-24T16:01:25.874Z,9.10
2023-03-24T16:03:55.267Z,8.80
2023-03-24T16:06:30.981Z,9.00
2023-03-24T16:09:01.769Z,9.70
2023-03-24T16:11:29.972Z,9.10
2023-03-24T16:13:59.002Z,15.50
2023-03-24T16:16:30.421Z,11.50
2023-03-24T16:18:59.596Z,19.80
2023-03-24T16:21:29.889Z,17.30
2023-03-24T16:23:58.436Z,30.40
2023-03-24T16:26:30.333Z,39.40
2023-03-24T16:29:14.004Z,31.70
2023-03-24T16:31:44.187Z,34.80
2023-03-24T16:34:12.421Z,27.30
2023-03-24T16:36:40.676Z,27.20
2023-03-24T16:39:24.679Z,21.00
2023-03-24T16:41:53.632Z,28.20
2023-03-24T16:44:22.424Z,30.00
2023-03-24T16:46:53.889Z,20.10
2023-03-24T16:49:23.846Z,33.60
2023-03-24T16:51:54.500Z,24.60
2023-03-24T16:54:22.855Z,18.10
2023-03-24T16:56:51.130Z,16.10
2023-03-24T16:59:19.863Z,14.00
2023-03-24T17:01:52.144Z,13.10
2023-03-24T17:04:22.378Z,12.10
2023-03-24T17:06:54.209Z,12.70
2023-03-24T17:09:22.839Z,13.80
2023-03-24T17:11:57.537Z,10.70
2023-03-24T17:14:25.860Z,11.60
2023-03-24T17:16:54.161Z,11.00
2023-03-24T17:19:24.893Z,14.40
2023-03-24T17:22:12.610Z,9.90
2023-03-24T17:24:42.229Z,12.50
2023-03-24T17:27:16.713Z,9.00
2023-03-24T17:29:46.358Z,18.30
2023-03-24T17:32:14.741Z,19.00
2023-03-24T17:34:45.323Z,17.30
2023-03-24T17:37:13.779Z,13.20
2023-03-24T17:39:42.008Z,14.60
2023-03-24T17:42:10.185Z,16.40
2023-03-24T17:44:38.422Z,13.10
2023-03-24T17:47:07.422Z,13.60
2023-03-24T17:49:35.803Z,13.10
2023-03-24T17:52:04.174Z,14.30
2023-03-24T17:54:32.416Z,13.00
2023-03-24T17:57:00.792Z,16.80
2023-03-24T17:59:29.029Z,11.80
2023-03-24T18:01:57.428Z,15.60
2023-03-24T18:04:25.654Z,12.90
2023-03-24T18:06:53.862Z,17.00
2023-03-24T18:09:22.060Z,15.40
2023-03-24T18:11:50.291Z,17.80
2023-03-24T18:14:18.760Z,18.80
2023-03-24T18:16:48.327Z,17.70
2023-03-24T18:19:17.006Z,24.50
2023-03-24T18:21:45.351Z,21.50
2023-03-24T18:24:13.573Z,21.60
2023-03-24T18:26:41.737Z,28.00
2023-03-24T18:29:10.169Z,32.70
2023-03-24T18:31:38.557Z,27.30
2023-03-24T18:34:06.844Z,28.40
2023-03-24T18:36:36.117Z,26.30
2023-03-24T18:39:08.220Z,25.50
2023-03-24T18:41:37.334Z,38.90
2023-03-24T18:44:09.899Z,38.70
2023-03-24T18:46:39.222Z,35.80
2023-03-24T18:49:12.105Z,34.70
2023-03-24T18:51:40.454Z,37.00
2023-03-24T18:54:11.196Z,37.50
2023-03-24T18:56:39.463Z,37.70
2023-03-24T18:59:09.088Z,35.90
2023-03-24T19:01:37.846Z,32.90
2023-03-24T19:04:06.326Z,36.50
2023-03-24T19:06:35.268Z,45.80
2023-03-24T19:09:05.268Z,40.70
2023-03-24T19:11:34.110Z,41.40
2023-03-24T19:14:02.963Z,38.00
2023-03-24T19:16:31.790Z,33.00
2023-03-24T19:19:01.014Z,31.70
2023-03-24T19:21:29.292Z,27.70
2023-03-24T19:23:57.491Z,27.90
2023-03-24T19:26:26.038Z,27.80
2023-03-24T19:28:54.405Z,28.20
2023-03-24T19:31:22.647Z,22.40
2023-03-24T19:33:52.323Z,23.70
2023-03-24T19:36:20.614Z,22.50
2023-03-24T19:38:48.826Z,24.60
2023-03-24T19:41:17.176Z,21.50
2023-03-24T19:43:45.391Z,19.60
2023-03-24T19:46:13.732Z,25.70
2023-03-24T19:48:41.984Z,23.30
2023-03-24T19:51:10.138Z,31.10
2023-03-24T19:53:38.613Z,24.90
2023-03-24T19:56:07.728Z,26.70
2023-03-24T19:58:36.185Z,29.20
2023-03-24T20:01:04.606Z,32.40
2023-03-24T20:03:33.074Z,28.80
2023-03-24T20:06:09.206Z,26.90
2023-03-24T20:08:38.479Z,30.30
2023-03-24T20:11:10.614Z,35.10
2023-03-24T20:13:39.056Z,35.30
2023-03-24T20:16:07.493Z,33.30
2023-03-24T20:18:36.416Z,32.30
2023-03-24T20:21:06.958Z,34.50
2023-03-24T20:23:35.273Z,36.40
2023-03-24T20:26:03.749Z,36.80
2023-03-24T20:28:31.963Z,34.20
2023-03-24T20:31:03.385Z,30.30
2023-03-24T20:33:32.209Z,34.20
2023-03-24T20:36:00.953Z,35.00
2023-03-24T20:38:29.772Z,30.20
2023-03-24T20:41:07.114Z,28.80
2023-03-24T20:43:37.293Z,27.90
2023-03-24T20:46:08.728Z,29.80
2023-03-24T20:48:37.491Z,20.40
2023-03-24T20:51:05.967Z,19.20
2023-03-24T20:53:35.770Z,19.30
2023-03-24T20:56:08.022Z,20.30
2023-03-24T20:58:41.202Z,18.70
2023-03-24T21:01:20.312Z,21.10
2023-03-24T21:03:50.499Z,20.80
2023-03-24T21:06:20.489Z,18.40
2023-03-24T21:08:48.733Z,25.50
2023-03-24T21:11:17.009Z,23.50
2023-03-24T21:13:45.382Z,22.10
2023-03-24T21:16:13.970Z,26.00
2023-03-24T21:18:42.708Z,22.30
2023-03-24T21:21:12.495Z,25.50
2023-03-24T21:23:43.064Z,28.40
2023-03-24T21:26:17.974Z,26.90
2023-03-24T21:28:46.456Z,34.80
2023-03-24T21:31:29.669Z,34.00
2023-03-24T21:36:30.013Z,35.30
2023-03-24T21:38:59.183Z,30.80
2023-03-24T21:41:28.823Z,36.60
2023-03-24T21:44:00.643Z,30.80
2023-03-24T21:46:32.091Z,32.40
2023-03-24T21:49:01.093Z,30.80
2023-03-24T21:51:36.749Z,26.70
2023-03-24T21:54:06.822Z,29.40
2023-03-24T21:56:36.121Z,26.70
2023-03-24T21:59:04.748Z,22.30
2023-03-24T22:01:35.822Z,26.30
2023-03-24T22:04:05.772Z,22.50
2023-03-24T22:06:37.785Z,26.60
2023-03-24T22:09:08.193Z,28.50
2023-03-24T22:11:37.406Z,29.00
2023-03-24T22:14:05.765Z,27.20
2023-03-24T22:16:34.002Z,32.70
2023-03-24T22:19:02.261Z,40.80
2023-03-24T22:21:32.247Z,35.20
2023-03-24T22:24:00.700Z,32.80
2023-03-24T22:26:29.014Z,33.70
2023-03-24T22:28:58.281Z,30.70
2023-03-24T22:31:26.534Z,28.60
2023-03-24T22:33:54.779Z,30.60
2023-03-24T22:36:23.065Z,29.40
2023-03-24T22:38:51.358Z,28.00
2023-03-24T22:41:19.594Z,28.80
2023-03-24T22:43:47.771Z,34.50
2023-03-24T22:46:16.449Z,34.30
2023-03-24T22:48:44.707Z,32.10
2023-03-24T22:51:18.957Z,32.90
2023-03-24T22:53:48.246Z,30.90
2023-03-24T22:56:16.577Z,27.20
2023-03-24T22:58:44.851Z,27.20
2023-03-24T23:01:13.140Z,28.10
2023-03-24T23:03:41.347Z,28.40
2023-03-24T23:06:11.674Z,32.20
2023-03-24T23:08:40.160Z,28.40
2023-03-24T23:11:09.106Z,26.30
2023-03-24T23:13:38.828Z,27.50
2023-03-24T23:16:08.254Z,28.20
2023-03-24T23:18:37.742Z,28.70
2023-03-24T23:21:10.462Z,29.50
2023-03-24T23:23:40.779Z,26.70
2023-03-24T23:26:26.306Z,26.00
2023-03-24T23:28:55.238Z,27.80
2023-03-24T23:31:26.532Z,26.60
2023-03-24T23:33:57.791Z,28.60
2023-03-24T23:36:26.428Z,26.10
2023-03-24T23:38:55.003Z,24.00
2023-03-24T23:41:24.507Z,24.20
2023-03-24T23:43:53.409Z,23.70
2023-03-24T23:46:23.976Z,24.00
2023-03-24T23:48:52.377Z,24.10
2023-03-24T23:51:21.045Z,25.90
2023-03-24T23:53:50.280Z,25.60
2023-03-24T23:56:21.497Z,28.40
2023-03-24T23:58:50.078Z,26.10
